Airfield :
LOGIN :

Register | Disclaimer

   EN    FR    IT 

 










Legend :    VFR   Marginal VFR   IFR   Intensive IFR   Very Intensive IFR
Visi :
Ceiling :
>= 8 km
>= 3000ft
5 to 8 km
1000 to 3000 ft
1500m to 5 km
500 to 1000 ft
800 to 1500m
200 to 500 ft
< 800m
< 200 ft
Symbols :   Thunderstorms  Fog  Heavy snow  Heavy precipitations  Wind > 20 kt
SIGMETs :     Misc.  Thunderstorms  Icing  Turbulence  Mountain Waves  Volcanic Ashes






- Airport Elevation : 74 ft
- IATA code : LRH


LFBH - La Rochelle Ile de Ré

CURRENT METAR :
  • 260500Z AUTO 27007KT 9999 FEW033 BKN120 14/12 Q1016 NOSIG

EXPIRED METARs :
  • 260430Z AUTO 27008KT 9999 FEW024 SCT110 15/11 Q1016 NOSIG
  • 260400Z AUTO 27010KT 9999 FEW025 BKN031 OVC110 15/12 Q1016 NOSIG
  • 260330Z AUTO 27010KT 9999 BKN024 BKN031 OVC100 15/12 Q1015 NOSIG
  • 260300Z AUTO 26010KT 9999 BKN026 OVC100 15/12 Q1015 NOSIG
  • 260230Z AUTO 27011KT 9999 OVC027 15/12 Q1015 NOSIG
  • 260200Z AUTO 26012KT 9999 BKN018 BKN023 OVC028 16/14 Q1015 TEMPO 4000 -RA BKN011
  • 260130Z AUTO 25012KT 9999 -RADZ SCT009/// BKN013/// OVC020/// ///TCU 16/15 Q1015 TEMPO 4000 -RA BECMG SCT040
  • 260100Z AUTO 25011KT 9999 OVC012 16/15 Q1015 TEMPO 4000 -RA
  • 260030Z AUTO 26011KT 9999 SCT011 BKN018 BKN033 16/14 Q1015 TEMPO 4000 -RA BKN011

TAF TAF LFBH
Valid from the 26 at 00:00 until the 27 at 00:00 UTC


252300Z 2600/2624 26006KT 9999 SCT040
PROB40
TEMPO 2600/2603 4000 -RA BKN011
PROB40
TEMPO 2621/2624 -SHRA BKN030TCU
ATIS : +33 5 46 00 13 92



MET'MAP, your aeronautical weather chart ! - Copyright ORBIFLY December 2007 - Disclaimer

ORBIFLY MET'MAP TEAM :

Programming & Development : Alexandra Zaïnal
Original concept : Baudouin d'Aumeries
Technical & hardware support : Manuel Goepfert
Assistance : Marc-Olivier Méhu




SOURCES & CREDITS :

   NOAA